createdAt,value
2022-09-28T00:04:16.273Z,0.00
2022-09-28T00:09:48.142Z,0.00
2022-09-28T00:15:19.997Z,0.00
2022-09-28T00:20:51.986Z,0.00
2022-09-28T00:26:23.897Z,0.00
2022-09-28T00:31:55.471Z,0.00
2022-09-28T00:37:27.662Z,0.00
2022-09-28T00:42:59.302Z,0.00
2022-09-28T00:54:00.502Z,0.00
2022-09-28T00:59:32.168Z,1.00
2022-09-28T01:10:33.590Z,1.00
2022-09-28T01:21:35.067Z,0.00
2022-09-28T01:27:06.708Z,0.00
2022-09-28T01:32:38.462Z,0.00
2022-09-28T01:38:10.473Z,0.00
2022-09-28T01:49:11.495Z,1.00
2022-09-28T01:54:43.289Z,0.00
2022-09-28T02:05:44.707Z,0.00
2022-09-28T02:13:37.693Z,0.00
2022-09-28T02:24:39.012Z,0.00
2022-09-28T02:30:10.805Z,1.00
2022-09-28T02:35:42.757Z,0.00
2022-09-28T02:41:14.538Z,1.00
2022-09-28T02:46:46.345Z,0.00
2022-09-28T02:52:18.310Z,0.00
2022-09-28T02:57:51.525Z,0.00
2022-09-28T03:03:23.147Z,0.00
2022-09-28T03:08:54.648Z,0.00
2022-09-28T03:14:26.319Z,0.00
2022-09-28T03:19:57.852Z,0.00
2022-09-28T03:25:29.652Z,0.00
2022-09-28T03:31:01.449Z,0.00
2022-09-28T03:36:33.338Z,0.00
2022-09-28T03:42:05.306Z,0.00
2022-09-28T03:47:36.954Z,0.00
2022-09-28T03:53:08.338Z,0.00
2022-09-28T03:58:39.848Z,1.00
2022-09-28T04:04:11.515Z,1.00
2022-09-28T04:09:43.577Z,0.00
2022-09-28T04:15:15.172Z,0.00
2022-09-28T04:20:46.707Z,1.00
2022-09-28T04:26:18.311Z,1.00
2022-09-28T04:31:50.175Z,1.00
2022-09-28T04:37:21.906Z,1.00
2022-09-28T04:42:53.811Z,2.00
2022-09-28T04:48:25.575Z,8.00
2022-09-28T04:53:57.255Z,14.00
2022-09-28T05:05:00.761Z,52.00
2022-09-28T05:10:32.048Z,105.00
2022-09-28T05:16:05.577Z,96.00
2022-09-28T05:21:35.031Z,154.00
2022-09-28T05:27:06.550Z,619.00
2022-09-28T05:32:37.891Z,854.00
2022-09-28T05:38:09.647Z,878.00
2022-09-28T05:43:41.400Z,749.00
2022-09-28T05:49:12.734Z,1211.00
2022-09-28T05:54:44.064Z,1248.00
2022-09-28T06:00:16.223Z,2063.00
2022-09-28T06:05:47.485Z,2355.00
2022-09-28T06:11:19.053Z,2032.00
2022-09-28T06:16:50.798Z,1567.00
2022-09-28T06:22:22.027Z,1377.00
2022-09-28T06:27:53.630Z,1697.00
2022-09-28T06:33:25.125Z,2106.00
2022-09-28T06:38:56.957Z,2698.00
2022-09-28T06:44:28.736Z,2592.00
2022-09-28T06:50:00.054Z,5812.00
2022-09-28T06:55:32.003Z,5270.00
2022-09-28T07:01:03.879Z,3869.00
2022-09-28T07:06:35.613Z,3912.00
2022-09-28T07:12:07.386Z,5372.00
2022-09-28T07:17:52.488Z,4886.00
2022-09-28T07:23:18.960Z,5228.00
2022-09-28T07:28:42.312Z,5540.00
2022-09-28T07:34:14.148Z,6312.00
2022-09-28T07:39:46.221Z,7721.00
2022-09-28T07:45:17.762Z,8166.00
2022-09-28T07:50:49.524Z,7253.00
2022-09-28T07:56:21.549Z,7810.00
2022-09-28T08:01:53.314Z,8417.00
2022-09-28T08:07:25.111Z,8203.00
2022-09-28T08:12:59.280Z,9787.00
2022-09-28T08:18:28.753Z,7709.00
2022-09-28T08:24:00.557Z,7004.00
2022-09-28T08:29:32.128Z,8789.00
2022-09-28T08:35:03.822Z,10081.00
2022-09-28T08:40:35.878Z,12659.00
2022-09-28T08:46:07.437Z,11135.00
2022-09-28T08:51:39.095Z,8695.00
2022-09-28T08:57:10.822Z,3926.00
2022-09-28T09:02:42.650Z,4814.00
2022-09-28T09:08:14.337Z,6576.00
2022-09-28T09:13:46.161Z,8916.00
2022-09-28T09:24:49.623Z,20195.00
2022-09-28T09:30:21.532Z,19960.00
2022-09-28T09:35:53.307Z,20418.00
2022-09-28T09:41:25.210Z,11672.00
2022-09-28T09:46:56.946Z,9954.00
2022-09-28T09:52:28.802Z,11114.00
2022-09-28T09:54:52.439Z,10152.00
2022-09-28T10:00:24.183Z,13354.00
2022-09-28T10:05:55.572Z,16459.00
2022-09-28T10:11:27.032Z,18219.00
2022-09-28T10:16:58.979Z,19312.00
2022-09-28T10:22:30.468Z,17537.00
2022-09-28T10:28:02.165Z,18426.00
2022-09-28T10:33:33.784Z,19385.00
2022-09-28T10:39:05.672Z,18773.00
2022-09-28T10:44:37.469Z,17661.00
2022-09-28T10:50:09.335Z,15171.00
2022-09-28T10:55:41.215Z,17154.00
2022-09-28T11:01:13.082Z,18944.00
2022-09-28T11:06:44.695Z,19483.00
2022-09-28T11:12:16.488Z,21449.00
2022-09-28T11:17:48.123Z,14551.00
2022-09-28T11:23:20.056Z,16069.00
2022-09-28T11:28:51.777Z,16614.00
2022-09-28T11:34:31.364Z,18426.00
2022-09-28T11:39:55.315Z,14726.00
2022-09-28T11:45:26.655Z,18238.00
2022-09-28T11:50:58.057Z,21077.00
2022-09-28T11:56:29.906Z,14861.00
2022-09-28T12:07:31.237Z,22597.00
2022-09-28T12:15:25.088Z,15176.00
2022-09-28T12:20:57.553Z,12869.00
2022-09-28T12:26:28.677Z,14289.00
2022-09-28T12:32:00.352Z,11242.00
2022-09-28T12:39:58.137Z,11004.00
2022-09-28T12:45:24.449Z,10268.00
2022-09-28T12:50:57.857Z,8978.00
2022-09-28T12:56:28.107Z,7920.00
2022-09-28T13:01:59.963Z,8495.00
2022-09-28T13:07:31.747Z,9900.00
2022-09-28T13:13:03.591Z,8853.00
2022-09-28T13:18:35.380Z,7851.00
2022-09-28T13:24:27.789Z,8089.00
2022-09-28T13:35:10.412Z,13946.00
2022-09-28T13:40:42.261Z,16157.00
2022-09-28T13:46:14.039Z,11177.00
2022-09-28T13:51:45.810Z,11102.00
2022-09-28T13:57:17.793Z,10063.00
2022-09-28T14:02:49.620Z,10312.00
2022-09-28T14:08:21.153Z,8304.00
2022-09-28T14:13:52.609Z,7400.00
2022-09-28T14:19:24.479Z,8858.00
2022-09-28T14:24:56.309Z,8083.00
2022-09-28T14:30:28.089Z,7832.00
2022-09-28T14:35:59.594Z,7360.00
2022-09-28T14:41:31.204Z,6279.00
2022-09-28T14:47:02.930Z,5496.00
2022-09-28T14:52:34.541Z,5808.00
2022-09-28T14:58:06.697Z,7441.00
2022-09-28T15:03:38.708Z,7075.00
2022-09-28T15:09:10.165Z,5852.00
2022-09-28T15:14:41.767Z,6310.00
2022-09-28T15:20:13.308Z,5652.00
2022-09-28T15:25:45.712Z,4943.00
2022-09-28T15:31:17.541Z,3914.00
2022-09-28T15:36:49.189Z,3647.00
2022-09-28T15:42:20.855Z,3718.00
2022-09-28T15:47:52.803Z,3567.00
2022-09-28T15:58:53.689Z,2834.00
2022-09-28T16:04:25.276Z,2494.00
2022-09-28T16:15:26.739Z,1873.00
2022-09-28T16:20:58.622Z,1667.00
2022-09-28T16:26:30.228Z,974.00
2022-09-28T16:32:02.410Z,890.00
2022-09-28T16:37:34.166Z,973.00
2022-09-28T16:43:06.186Z,328.00
2022-09-28T16:48:38.270Z,186.00
2022-09-28T16:54:09.710Z,129.00
2022-09-28T16:59:41.557Z,83.00
2022-09-28T17:05:13.953Z,53.00
2022-09-28T17:11:09.802Z,37.00
2022-09-28T17:16:17.735Z,18.00
2022-09-28T17:21:49.521Z,8.00
2022-09-28T17:27:21.160Z,3.00
2022-09-28T17:32:52.874Z,1.00
2022-09-28T17:38:24.670Z,2.00
2022-09-28T17:46:17.305Z,0.00
2022-09-28T17:51:49.125Z,1.00
2022-09-28T17:57:20.553Z,0.00
2022-09-28T18:02:52.248Z,1.00
2022-09-28T18:08:24.294Z,0.00
2022-09-28T18:13:55.902Z,0.00
2022-09-28T18:19:31.925Z,0.00
2022-09-28T18:24:59.490Z,1.00
2022-09-28T18:30:31.219Z,1.00
2022-09-28T18:41:32.319Z,0.00
2022-09-28T18:47:03.921Z,0.00
2022-09-28T18:58:04.612Z,0.00
2022-09-28T19:03:36.461Z,0.00
2022-09-28T19:14:37.502Z,0.00
2022-09-28T19:20:09.221Z,0.00
2022-09-28T19:31:10.411Z,0.00
2022-09-28T19:36:41.696Z,1.00
2022-09-28T19:42:13.615Z,1.00
2022-09-28T19:47:45.513Z,0.00
2022-09-28T19:58:46.918Z,1.00
2022-09-28T20:04:18.648Z,1.00
2022-09-28T20:09:50.169Z,0.00
2022-09-28T20:15:22.359Z,0.00
2022-09-28T20:20:53.952Z,1.00
2022-09-28T20:39:45.395Z,1.00
2022-09-28T20:45:17.267Z,1.00
2022-09-28T20:50:48.950Z,0.00
2022-09-28T20:56:21.412Z,1.00
2022-09-28T21:01:53.238Z,0.00
2022-09-28T21:07:25.052Z,1.00
2022-09-28T21:12:57.079Z,1.00
2022-09-28T21:18:28.786Z,1.00
2022-09-28T21:24:00.516Z,1.00
2022-09-28T21:29:32.619Z,0.00
2022-09-28T21:40:36.017Z,0.00
2022-09-28T21:46:07.792Z,1.00
2022-09-28T21:51:39.757Z,0.00
2022-09-28T22:02:40.788Z,0.00
2022-09-28T22:13:44.443Z,0.00
2022-09-28T22:19:16.330Z,1.00
2022-09-28T22:30:17.240Z,0.00
2022-09-28T22:35:48.806Z,0.00
2022-09-28T22:41:20.391Z,1.00
2022-09-28T22:46:52.207Z,0.00
2022-09-28T23:03:25.333Z,0.00
2022-09-28T23:08:57.201Z,0.00
2022-09-28T23:14:28.867Z,0.00
2022-09-28T23:20:01.093Z,0.00
2022-09-28T23:25:32.608Z,1.00
2022-09-28T23:31:03.958Z,0.00
2022-09-28T23:36:35.332Z,1.00
2022-09-28T23:42:07.055Z,0.00
2022-09-28T23:47:38.926Z,0.00
2022-09-28T23:53:10.830Z,0.00
2022-09-28T23:58:42.595Z,1.00
